sensor_id;sensor_type;location;lat;lon;timestamp;pressure;altitude;pressure_sealevel;temperature;humidity
14343;BME280;7255;53.596;9.960;2023-07-24T00:02:07;100116.31;;;18.53;nan
14343;BME280;7255;53.596;9.960;2023-07-24T00:04:35;100116.44;;;18.42;nan
14343;BME280;7255;53.596;9.960;2023-07-24T00:07:01;100113.66;;;18.47;nan
14343;BME280;7255;53.596;9.960;2023-07-24T00:09:28;100107.97;;;18.44;nan
14343;BME280;7255;53.596;9.960;2023-07-24T00:11:54;100104.75;;;18.42;nan
14343;BME280;7255;53.596;9.960;2023-07-24T00:14:21;100102.91;;;18.37;nan
14343;BME280;7255;53.596;9.960;2023-07-24T00:16:47;100109.38;;;18.41;nan
14343;BME280;7255;53.596;9.960;2023-07-24T00:19:13;100098.72;;;18.45;nan
14343;BME280;7255;53.596;9.960;2023-07-24T00:21:41;100100.09;;;18.42;nan
14343;BME280;7255;53.596;9.960;2023-07-24T00:24:07;100095.50;;;18.43;nan
14343;BME280;7255;53.596;9.960;2023-07-24T00:26:33;100102.91;;;18.37;nan
14343;BME280;7255;53.596;9.960;2023-07-24T00:29:00;100080.09;;;18.33;nan
14343;BME280;7255;53.596;9.960;2023-07-24T00:31:26;100093.19;;;18.31;nan
14343;BME280;7255;53.596;9.960;2023-07-24T00:33:52;100091.59;;;18.30;nan
14343;BME280;7255;53.596;9.960;2023-07-24T00:36:19;100100.59;;;18.25;nan
14343;BME280;7255;53.596;9.960;2023-07-24T00:38:46;100089.72;;;18.25;nan
14343;BME280;7255;53.596;9.960;2023-07-24T00:41:13;100092.75;;;18.24;nan
14343;BME280;7255;53.596;9.960;2023-07-24T00:43:39;100101.56;;;18.16;nan
14343;BME280;7255;53.596;9.960;2023-07-24T00:46:06;100105.97;;;18.12;nan
14343;BME280;7255;53.596;9.960;2023-07-24T00:48:32;100101.09;;;18.08;nan
14343;BME280;7255;53.596;9.960;2023-07-24T00:50:59;100096.75;;;18.07;nan
14343;BME280;7255;53.596;9.960;2023-07-24T00:53:26;100095.88;;;18.12;nan
14343;BME280;7255;53.596;9.960;2023-07-24T00:55:54;100087.78;;;18.07;nan
14343;BME280;7255;53.596;9.960;2023-07-24T00:58:21;100087.31;;;18.00;nan
14343;BME280;7255;53.596;9.960;2023-07-24T01:00:47;100083.16;;;18.07;nan
14343;BME280;7255;53.596;9.960;2023-07-24T01:03:14;100094.63;;;18.04;nan
14343;BME280;7255;53.596;9.960;2023-07-24T01:05:40;100096.69;;;18.13;nan
14343;BME280;7255;53.596;9.960;2023-07-24T01:08:07;100090.09;;;18.19;nan
14343;BME280;7255;53.596;9.960;2023-07-24T01:10:34;100084.59;;;18.24;nan
14343;BME280;7255;53.596;9.960;2023-07-24T01:13:05;100090.53;;;18.26;nan
14343;BME280;7255;53.596;9.960;2023-07-24T01:15:33;100088.34;;;18.28;nan
14343;BME280;7255;53.596;9.960;2023-07-24T01:18:03;100088.59;;;18.32;nan
14343;BME280;7255;53.596;9.960;2023-07-24T01:20:33;100090.63;;;18.40;nan
14343;BME280;7255;53.596;9.960;2023-07-24T01:23:22;100095.28;;;18.39;nan
14343;BME280;7255;53.596;9.960;2023-07-24T01:25:55;100083.00;;;18.42;nan
14343;BME280;7255;53.596;9.960;2023-07-24T01:28:22;100079.97;;;18.43;nan
14343;BME280;7255;53.596;9.960;2023-07-24T01:30:48;100090.28;;;18.46;nan
14343;BME280;7255;53.596;9.960;2023-07-24T01:33:14;100090.28;;;18.46;nan
14343;BME280;7255;53.596;9.960;2023-07-24T01:35:42;100085.88;;;18.51;nan
14343;BME280;7255;53.596;9.960;2023-07-24T01:38:09;100086.91;;;18.55;nan
14343;BME280;7255;53.596;9.960;2023-07-24T01:40:36;100079.25;;;18.57;nan
14343;BME280;7255;53.596;9.960;2023-07-24T01:43:04;100078.22;;;18.53;nan
14343;BME280;7255;53.596;9.960;2023-07-24T01:45:30;100079.03;;;18.53;nan
14343;BME280;7255;53.596;9.960;2023-07-24T01:47:57;100074.41;;;18.54;nan
14343;BME280;7255;53.596;9.960;2023-07-24T01:50:23;100075.22;;;18.54;nan
14343;BME280;7255;53.596;9.960;2023-07-24T01:52:50;100068.38;;;18.57;nan
14343;BME280;7255;53.596;9.960;2023-07-24T01:55:16;100072.44;;;18.59;nan
14343;BME280;7255;53.596;9.960;2023-07-24T01:57:42;100072.44;;;18.59;nan
14343;BME280;7255;53.596;9.960;2023-07-24T02:00:11;100068.75;;;18.50;nan
14343;BME280;7255;53.596;9.960;2023-07-24T02:02:37;100072.78;;;18.53;nan
14343;BME280;7255;53.596;9.960;2023-07-24T02:05:04;100073.38;;;18.50;nan
14343;BME280;7255;53.596;9.960;2023-07-24T02:07:31;100070.75;;;18.44;nan
14343;BME280;7255;53.596;9.960;2023-07-24T02:09:57;100072.13;;;18.42;nan
14343;BME280;7255;53.596;9.960;2023-07-24T02:12:23;100065.88;;;18.41;nan
14343;BME280;7255;53.596;9.960;2023-07-24T02:14:50;100064.03;;;18.37;nan
14343;BME280;7255;53.596;9.960;2023-07-24T02:17:18;100064.47;;;18.44;nan
14343;BME280;7255;53.596;9.960;2023-07-24T02:19:44;100055.00;;;18.41;nan
14343;BME280;7255;53.596;9.960;2023-07-24T02:22:11;100060.22;;;18.38;nan
14343;BME280;7255;53.596;9.960;2023-07-24T02:24:37;100057.78;;;18.36;nan
14343;BME280;7255;53.596;9.960;2023-07-24T02:27:04;100056.97;;;18.36;nan
14343;BME280;7255;53.596;9.960;2023-07-24T02:29:31;100052.12;;;18.33;nan
14343;BME280;7255;53.596;9.960;2023-07-24T02:31:58;100061.41;;;18.32;nan
14343;BME280;7255;53.596;9.960;2023-07-24T02:34:26;100051.44;;;18.22;nan
14343;BME280;7255;53.596;9.960;2023-07-24T02:36:53;100043.81;;;18.24;nan
14343;BME280;7255;53.596;9.960;2023-07-24T02:39:19;100070.53;;;18.17;nan
14343;BME280;7255;53.596;9.960;2023-07-24T02:41:47;100060.84;;;18.11;nan
14343;BME280;7255;53.596;9.960;2023-07-24T02:44:13;100063.16;;;17.98;nan
14343;BME280;7255;53.596;9.960;2023-07-24T02:46:40;100062.91;;;17.95;nan
14343;BME280;7255;53.596;9.960;2023-07-24T02:49:07;100069.75;;;17.92;nan
14343;BME280;7255;53.596;9.960;2023-07-24T02:51:34;100070.31;;;17.89;nan
14343;BME280;7255;53.596;9.960;2023-07-24T02:54:01;100064.66;;;17.85;nan
14343;BME280;7255;53.596;9.960;2023-07-24T02:56:27;100063.84;;;17.85;nan
14343;BME280;7255;53.596;9.960;2023-07-24T02:58:53;100067.63;;;17.84;nan
14343;BME280;7255;53.596;9.960;2023-07-24T03:01:19;100061.66;;;17.87;nan
14343;BME280;7255;53.596;9.960;2023-07-24T03:03:46;100067.31;;;17.91;nan
14343;BME280;7255;53.596;9.960;2023-07-24T03:06:12;100059.44;;;17.89;nan
14343;BME280;7255;53.596;9.960;2023-07-24T03:08:40;100059.69;;;17.93;nan
14343;BME280;7255;53.596;9.960;2023-07-24T03:11:07;100065.91;;;17.93;nan
14343;BME280;7255;53.596;9.960;2023-07-24T03:13:33;100070.44;;;18.03;nan
14343;BME280;7255;53.596;9.960;2023-07-24T03:15:59;100072.50;;;18.11;nan
14343;BME280;7255;53.596;9.960;2023-07-24T03:18:26;100067.28;;;18.15;nan
14343;BME280;7255;53.596;9.960;2023-07-24T03:20:52;100069.16;;;18.19;nan
14343;BME280;7255;53.596;9.960;2023-07-24T03:23:18;100068.34;;;18.19;nan
14343;BME280;7255;53.596;9.960;2023-07-24T03:25:46;100062.31;;;18.22;nan
14343;BME280;7255;53.596;9.960;2023-07-24T03:28:13;100060.94;;;18.24;nan
14343;BME280;7255;53.596;9.960;2023-07-24T03:30:39;100051.44;;;18.22;nan
14343;BME280;7255;53.596;9.960;2023-07-24T03:33:05;100058.28;;;18.19;nan
14343;BME280;7255;53.596;9.960;2023-07-24T03:35:33;100055.28;;;18.21;nan
14343;BME280;7255;53.596;9.960;2023-07-24T03:37:59;100052.62;;;18.16;nan
14343;BME280;7255;53.596;9.960;2023-07-24T03:40:25;100047.63;;;18.23;nan
14343;BME280;7255;53.596;9.960;2023-07-24T03:42:53;100043.94;;;18.14;nan
14343;BME280;7255;53.596;9.960;2023-07-24T03:45:20;100042.56;;;18.16;nan
14343;BME280;7255;53.596;9.960;2023-07-24T03:47:46;100044.19;;;18.17;nan
14343;BME280;7255;53.596;9.960;2023-07-24T03:50:12;100043.13;;;18.13;nan
14343;BME280;7255;53.596;9.960;2023-07-24T03:52:39;100044.53;;;18.11;nan
14343;BME280;7255;53.596;9.960;2023-07-24T03:55:05;100052.75;;;18.05;nan
14343;BME280;7255;53.596;9.960;2023-07-24T03:57:33;100044.63;;;18.00;nan
14343;BME280;7255;53.596;9.960;2023-07-24T04:00:00;100042.47;;;18.02;nan
14343;BME280;7255;53.596;9.960;2023-07-24T04:02:27;100054.13;;;18.03;nan
14343;BME280;7255;53.596;9.960;2023-07-24T04:04:53;100060.38;;;18.03;nan
14343;BME280;7255;53.596;9.960;2023-07-24T04:07:19;100062.00;;;18.04;nan
14343;BME280;7255;53.596;9.960;2023-07-24T04:09:46;100057.59;;;18.08;nan
14343;BME280;7255;53.596;9.960;2023-07-24T04:12:12;100061.19;;;18.04;nan
14343;BME280;7255;53.596;9.960;2023-07-24T04:14:38;100050.31;;;18.04;nan
14343;BME280;7255;53.596;9.960;2023-07-24T04:17:06;100060.94;;;18.00;nan
14343;BME280;7255;53.596;9.960;2023-07-24T04:19:32;100047.06;;;18.02;nan
14343;BME280;7255;53.596;9.960;2023-07-24T04:21:59;100056.91;;;17.98;nan
14343;BME280;7255;53.596;9.960;2023-07-24T04:24:25;100060.16;;;18.00;nan
14343;BME280;7255;53.596;9.960;2023-07-24T04:26:51;100046.78;;;18.03;nan
14343;BME280;7255;53.596;9.960;2023-07-24T04:29:18;100055.16;;;18.07;nan
14343;BME280;7255;53.596;9.960;2023-07-24T04:31:48;100053.41;;;18.16;nan
14343;BME280;7255;53.596;9.960;2023-07-24T04:34:16;100049.00;;;18.20;nan
14343;BME280;7255;53.596;9.960;2023-07-24T04:36:42;100048.09;;;18.30;nan
14343;BME280;7255;53.596;9.960;2023-07-24T04:39:09;100057.19;;;18.39;nan
14343;BME280;7255;53.596;9.960;2023-07-24T04:41:35;100055.00;;;18.41;nan
14343;BME280;7255;53.596;9.960;2023-07-24T04:44:01;100053.81;;;18.47;nan
14343;BME280;7255;53.596;9.960;2023-07-24T04:46:27;100064.13;;;18.51;nan
14343;BME280;7255;53.596;9.960;2023-07-24T04:48:54;100059.84;;;18.44;nan
14343;BME280;7255;53.596;9.960;2023-07-24T04:51:21;100055.22;;;18.45;nan
14343;BME280;7255;53.596;9.960;2023-07-24T04:53:48;100046.91;;;18.36;nan
14343;BME280;7255;53.596;9.960;2023-07-24T04:56:14;100049.12;;;18.34;nan
14343;BME280;7255;53.596;9.960;2023-07-24T04:58:40;100046.38;;;18.53;nan
14343;BME280;7255;53.596;9.960;2023-07-24T05:01:07;100044.84;;;18.66;nan
14343;BME280;7255;53.596;9.960;2023-07-24T05:03:34;100038.09;;;18.82;nan
14343;BME280;7255;53.596;9.960;2023-07-24T05:06:00;100044.13;;;18.79;nan
14343;BME280;7255;53.596;9.960;2023-07-24T05:08:28;100047.13;;;18.78;nan
14343;BME280;7255;53.596;9.960;2023-07-24T05:10:54;100033.97;;;18.66;nan
14343;BME280;7255;53.596;9.960;2023-07-24T05:13:21;100030.59;;;18.74;nan
14343;BME280;7255;53.596;9.960;2023-07-24T05:15:47;100032.66;;;18.82;nan
14343;BME280;7255;53.596;9.960;2023-07-24T05:18:14;100030.28;;;18.95;nan
14343;BME280;7255;53.596;9.960;2023-07-24T05:20:42;100021.84;;;19.10;nan
14343;BME280;7255;53.596;9.960;2023-07-24T05:23:09;100017.44;;;19.28;nan
14343;BME280;7255;53.596;9.960;2023-07-24T05:25:36;100016.47;;;19.38;nan
14343;BME280;7255;53.596;9.960;2023-07-24T05:28:03;100015.66;;;19.51;nan
14343;BME280;7255;53.596;9.960;2023-07-24T05:30:29;100020.31;;;19.65;nan
14343;BME280;7255;53.596;9.960;2023-07-24T05:32:55;100022.78;;;19.80;nan
14343;BME280;7255;53.596;9.960;2023-07-24T05:35:22;100029.84;;;19.95;nan
14343;BME280;7255;53.596;9.960;2023-07-24T05:37:48;100027.59;;;19.97;nan
14343;BME280;7255;53.596;9.960;2023-07-24T05:40:14;100027.09;;;19.81;nan
14343;BME280;7255;53.596;9.960;2023-07-24T05:42:42;100023.19;;;19.73;nan
14343;BME280;7255;53.596;9.960;2023-07-24T05:45:10;100012.84;;;19.70;nan
14343;BME280;7255;53.596;9.960;2023-07-24T05:47:37;100023.97;;;19.74;nan
14343;BME280;7255;53.596;9.960;2023-07-24T05:50:04;100006.81;;;19.73;nan
14343;BME280;7255;53.596;9.960;2023-07-24T05:52:30;100020.56;;;19.82;nan
14343;BME280;7255;53.596;9.960;2023-07-24T05:54:56;100011.16;;;19.88;nan
14343;BME280;7255;53.596;9.960;2023-07-24T05:57:23;100000.56;;;19.87;nan
14343;BME280;7255;53.596;9.960;2023-07-24T05:59:50;99998.53;;;19.92;nan
14343;BME280;7255;53.596;9.960;2023-07-24T06:02:17;99999.53;;;19.96;nan
14343;BME280;7255;53.596;9.960;2023-07-24T06:04:43;99985.78;;;20.02;nan
14343;BME280;7255;53.596;9.960;2023-07-24T06:07:09;100000.53;;;20.00;nan
14343;BME280;7255;53.596;9.960;2023-07-24T06:09:36;99998.12;;;19.99;nan
14343;BME280;7255;53.596;9.960;2023-07-24T06:12:02;99998.06;;;20.13;nan
14343;BME280;7255;53.596;9.960;2023-07-24T06:14:29;100003.91;;;20.20;nan
14343;BME280;7255;53.596;9.960;2023-07-24T06:16:56;100001.53;;;20.18;nan
14343;BME280;7255;53.596;9.960;2023-07-24T06:19:23;99989.44;;;19.97;nan
14343;BME280;7255;53.596;9.960;2023-07-24T06:21:49;100005.91;;;19.92;nan
14343;BME280;7255;53.596;9.960;2023-07-24T06:24:15;100008.31;;;19.93;nan
14343;BME280;7255;53.596;9.960;2023-07-24T06:26:42;99993.25;;;20.10;nan
14343;BME280;7255;53.596;9.960;2023-07-24T06:29:08;99993.22;;;20.24;nan
14343;BME280;7255;53.596;9.960;2023-07-24T06:31:34;99993.00;;;20.34;nan
14343;BME280;7255;53.596;9.960;2023-07-24T06:34:02;99993.19;;;20.60;nan
14343;BME280;7255;53.596;9.960;2023-07-24T06:36:28;99999.16;;;20.62;nan
14343;BME280;7255;53.596;9.960;2023-07-24T06:38:55;99993.72;;;20.62;nan
14343;BME280;7255;53.596;9.960;2023-07-24T06:41:21;100000.28;;;20.25;nan
14343;BME280;7255;53.596;9.960;2023-07-24T06:43:48;99990.03;;;20.08;nan
14343;BME280;7255;53.596;9.960;2023-07-24T06:46:14;99982.56;;;19.99;nan
14343;BME280;7255;53.596;9.960;2023-07-24T06:48:40;99993.69;;;19.89;nan
14343;BME280;7255;53.596;9.960;2023-07-24T06:51:08;99985.81;;;19.74;nan
14343;BME280;7255;53.596;9.960;2023-07-24T06:53:34;99981.16;;;19.88;nan
14343;BME280;7255;53.596;9.960;2023-07-24T06:56:01;99979.53;;;19.87;nan
14343;BME280;7255;53.596;9.960;2023-07-24T06:58:27;99983.53;;;20.17;nan
14343;BME280;7255;53.596;9.960;2023-07-24T07:00:53;99990.75;;;20.36;nan
14343;BME280;7255;53.596;9.960;2023-07-24T07:03:20;99985.87;;;20.47;nan
14343;BME280;7255;53.596;9.960;2023-07-24T07:05:46;99988.91;;;20.45;nan
14343;BME280;7255;53.596;9.960;2023-07-24T07:08:13;99998.41;;;20.48;nan
14343;BME280;7255;53.596;9.960;2023-07-24T07:10:40;99993.09;;;20.65;nan
14343;BME280;7255;53.596;9.960;2023-07-24T07:13:06;99985.37;;;20.45;nan
14343;BME280;7255;53.596;9.960;2023-07-24T07:15:32;99986.06;;;20.50;nan
14343;BME280;7255;53.596;9.960;2023-07-24T07:17:59;99988.97;;;20.31;nan
14343;BME280;7255;53.596;9.960;2023-07-24T07:20:25;99981.97;;;19.89;nan
14343;BME280;7255;53.596;9.960;2023-07-24T07:22:51;99990.78;;;19.86;nan
14343;BME280;7255;53.596;9.960;2023-07-24T07:25:19;99990.03;;;19.94;nan
14343;BME280;7255;53.596;9.960;2023-07-24T07:27:45;99987.00;;;19.95;nan
14343;BME280;7255;53.596;9.960;2023-07-24T07:30:12;99979.72;;;20.05;nan
14343;BME280;7255;53.596;9.960;2023-07-24T07:32:38;99980.13;;;19.98;nan
14343;BME280;7255;53.596;9.960;2023-07-24T07:35:05;99973.88;;;19.97;nan
14343;BME280;7255;53.596;9.960;2023-07-24T07:37:32;99986.41;;;19.98;nan
14343;BME280;7255;53.596;9.960;2023-07-24T07:39:58;99982.41;;;19.82;nan
14343;BME280;7255;53.596;9.960;2023-07-24T07:42:25;99987.41;;;20.03;nan
14343;BME280;7255;53.596;9.960;2023-07-24T07:44:52;99989.97;;;20.22;nan
14343;BME280;7255;53.596;9.960;2023-07-24T07:47:18;99998.22;;;20.44;nan
14343;BME280;7255;53.596;9.960;2023-07-24T07:49:44;99997.12;;;20.68;nan
14343;BME280;7255;53.596;9.960;2023-07-24T07:52:11;100000.37;;;20.56;nan
14343;BME280;7255;53.596;9.960;2023-07-24T07:54:37;100000.69;;;20.54;nan
14343;BME280;7255;53.596;9.960;2023-07-24T07:57:04;99990.72;;;20.50;nan
14343;BME280;7255;53.596;9.960;2023-07-24T07:59:32;99979.28;;;20.25;nan
14343;BME280;7255;53.596;9.960;2023-07-24T08:02:00;99968.75;;;20.32;nan
14343;BME280;7255;53.596;9.960;2023-07-24T08:04:26;99968.91;;;20.50;nan
14343;BME280;7255;53.596;9.960;2023-07-24T08:06:52;99972.75;;;20.94;nan
14343;BME280;7255;53.596;9.960;2023-07-24T08:09:19;99978.03;;;20.90;nan
14343;BME280;7255;53.596;9.960;2023-07-24T08:11:46;99984.72;;;20.84;nan
14343;BME280;7255;53.596;9.960;2023-07-24T08:14:13;99982.97;;;20.66;nan
14343;BME280;7255;53.596;9.960;2023-07-24T08:16:40;99992.13;;;20.61;nan
14343;BME280;7255;53.596;9.960;2023-07-24T08:19:06;99970.50;;;20.51;nan
14343;BME280;7255;53.596;9.960;2023-07-24T08:21:33;99974.62;;;20.62;nan
14343;BME280;7255;53.596;9.960;2023-07-24T08:23:59;99958.97;;;20.76;nan
14343;BME280;7255;53.596;9.960;2023-07-24T08:26:27;99971.75;;;20.90;nan
14343;BME280;7255;53.596;9.960;2023-07-24T08:28:53;99966.88;;;21.09;nan
14343;BME280;7255;53.596;9.960;2023-07-24T08:31:20;99970.87;;;21.03;nan
14343;BME280;7255;53.596;9.960;2023-07-24T08:33:47;99973.84;;;21.15;nan
14343;BME280;7255;53.596;9.960;2023-07-24T08:36:14;99976.63;;;21.02;nan
14343;BME280;7255;53.596;9.960;2023-07-24T08:38:41;99966.28;;;20.90;nan
14343;BME280;7255;53.596;9.960;2023-07-24T08:41:09;99959.94;;;21.03;nan
14343;BME280;7255;53.596;9.960;2023-07-24T08:43:36;99966.03;;;21.00;nan
14343;BME280;7255;53.596;9.960;2023-07-24T08:46:04;99978.81;;;20.91;nan
14343;BME280;7255;53.596;9.960;2023-07-24T08:48:31;99962.81;;;20.98;nan
14343;BME280;7255;53.596;9.960;2023-07-24T08:51:02;99972.75;;;20.94;nan
14343;BME280;7255;53.596;9.960;2023-07-24T08:53:29;99969.41;;;20.74;nan
14343;BME280;7255;53.596;9.960;2023-07-24T08:55:56;99982.19;;;20.65;nan
14343;BME280;7255;53.596;9.960;2023-07-24T08:58:23;99988.03;;;20.58;nan
14343;BME280;7255;53.596;9.960;2023-07-24T09:00:50;99975.75;;;20.47;nan
14343;BME280;7255;53.596;9.960;2023-07-24T09:03:17;99974.88;;;20.74;nan
14343;BME280;7255;53.596;9.960;2023-07-24T09:05:44;99970.56;;;20.82;nan
14343;BME280;7255;53.596;9.960;2023-07-24T09:08:12;99966.91;;;20.87;nan
14343;BME280;7255;53.596;9.960;2023-07-24T09:10:39;99977.06;;;21.18;nan
14343;BME280;7255;53.596;9.960;2023-07-24T09:13:06;99966.47;;;21.25;nan
14343;BME280;7255;53.596;9.960;2023-07-24T09:15:39;99965.75;;;21.42;nan
14343;BME280;7255;53.596;9.960;2023-07-24T09:18:06;99960.53;;;21.63;nan
14343;BME280;7255;53.596;9.960;2023-07-24T09:20:38;99963.28;;;21.71;nan
14343;BME280;7255;53.596;9.960;2023-07-24T09:23:04;99963.78;;;21.82;nan
14343;BME280;7255;53.596;9.960;2023-07-24T09:25:33;99954.31;;;21.97;nan
14343;BME280;7255;53.596;9.960;2023-07-24T09:27:59;99956.25;;;21.88;nan
14343;BME280;7255;53.596;9.960;2023-07-24T09:30:26;99957.19;;;21.75;nan
14343;BME280;7255;53.596;9.960;2023-07-24T09:32:53;99958.28;;;21.65;nan
14343;BME280;7255;53.596;9.960;2023-07-24T09:35:20;99969.28;;;21.42;nan
14343;BME280;7255;53.596;9.960;2023-07-24T09:37:51;99971.00;;;21.69;nan
14343;BME280;7255;53.596;9.960;2023-07-24T09:40:17;99971.63;;;21.66;nan
14343;BME280;7255;53.596;9.960;2023-07-24T09:42:45;99959.44;;;21.72;nan
14343;BME280;7255;53.596;9.960;2023-07-24T09:45:11;99949.47;;;21.77;nan
14343;BME280;7255;53.596;9.960;2023-07-24T09:47:39;99949.63;;;21.80;nan
14343;BME280;7255;53.596;9.960;2023-07-24T09:50:06;99956.44;;;22.09;nan
14343;BME280;7255;53.596;9.960;2023-07-24T09:52:34;99948.37;;;22.56;nan
14343;BME280;7255;53.596;9.960;2023-07-24T09:55:06;99949.38;;;22.60;nan
14343;BME280;7255;53.596;9.960;2023-07-24T09:57:35;99926.34;;;22.18;nan
14343;BME280;7255;53.596;9.960;2023-07-24T10:00:03;99929.72;;;22.06;nan
14343;BME280;7255;53.596;9.960;2023-07-24T10:02:32;99928.91;;;21.88;nan
14343;BME280;7255;53.596;9.960;2023-07-24T10:05:00;99918.78;;;22.23;nan
14343;BME280;7255;53.596;9.960;2023-07-24T10:07:27;99919.75;;;22.62;nan
14343;BME280;7255;53.596;9.960;2023-07-24T10:09:54;99927.69;;;23.02;nan
14343;BME280;7255;53.596;9.960;2023-07-24T10:12:22;99930.00;;;22.83;nan
14343;BME280;7255;53.596;9.960;2023-07-24T10:14:49;99930.78;;;22.83;nan
14343;BME280;7255;53.596;9.960;2023-07-24T10:17:34;99929.81;;;23.35;nan
14343;BME280;7255;53.596;9.960;2023-07-24T10:20:02;99934.16;;;23.66;nan
14343;BME280;7255;53.596;9.960;2023-07-24T10:22:29;99936.00;;;23.53;nan
14343;BME280;7255;53.596;9.960;2023-07-24T10:24:55;99937.19;;;23.43;nan
14343;BME280;7255;53.596;9.960;2023-07-24T10:27:23;99934.94;;;23.07;nan
14343;BME280;7255;53.596;9.960;2023-07-24T10:29:58;99936.16;;;22.62;nan
14343;BME280;7255;53.596;9.960;2023-07-24T10:32:26;99928.19;;;22.96;nan
14343;BME280;7255;53.596;9.960;2023-07-24T10:34:57;99933.44;;;23.18;nan
14343;BME280;7255;53.596;9.960;2023-07-24T10:37:32;99941.81;;;23.52;nan
14343;BME280;7255;53.596;9.960;2023-07-24T10:39:58;99927.00;;;23.23;nan
14343;BME280;7255;53.596;9.960;2023-07-24T10:42:24;99927.56;;;23.37;nan
14343;BME280;7255;53.596;9.960;2023-07-24T10:45:01;99917.25;;;23.34;nan
14343;BME280;7255;53.596;9.960;2023-07-24T10:47:29;99918.34;;;23.42;nan
14343;BME280;7255;53.596;9.960;2023-07-24T10:49:57;99922.44;;;23.27;nan
14343;BME280;7255;53.596;9.960;2023-07-24T10:52:27;99911.78;;;23.34;nan
14343;BME280;7255;53.596;9.960;2023-07-24T10:54:53;99918.41;;;23.63;nan
14343;BME280;7255;53.596;9.960;2023-07-24T10:57:25;99921.97;;;23.55;nan
14343;BME280;7255;53.596;9.960;2023-07-24T10:59:51;99921.41;;;23.40;nan
14343;BME280;7255;53.596;9.960;2023-07-24T11:02:18;99918.94;;;23.18;nan
14343;BME280;7255;53.596;9.960;2023-07-24T11:04:46;99930.34;;;23.29;nan
14343;BME280;7255;53.596;9.960;2023-07-24T11:07:12;99924.16;;;22.93;nan
14343;BME280;7255;53.596;9.960;2023-07-24T11:09:40;99918.97;;;23.00;nan
14343;BME280;7255;53.596;9.960;2023-07-24T11:12:11;99917.22;;;22.96;nan
14343;BME280;7255;53.596;9.960;2023-07-24T11:14:46;99918.31;;;23.03;nan
14343;BME280;7255;53.596;9.960;2023-07-24T11:17:12;99901.00;;;23.29;nan
14343;BME280;7255;53.596;9.960;2023-07-24T11:19:39;99910.37;;;23.58;nan
14343;BME280;7255;53.596;9.960;2023-07-24T11:22:07;99904.97;;;23.40;nan
14343;BME280;7255;53.596;9.960;2023-07-24T11:24:42;99899.91;;;23.51;nan
14343;BME280;7255;53.596;9.960;2023-07-24T11:27:09;99896.38;;;23.51;nan
14343;BME280;7255;53.596;9.960;2023-07-24T11:29:36;99895.41;;;23.17;nan
14343;BME280;7255;53.596;9.960;2023-07-24T11:32:04;99894.47;;;23.42;nan
14343;BME280;7255;53.596;9.960;2023-07-24T11:34:30;99887.72;;;23.40;nan
14343;BME280;7255;53.596;9.960;2023-07-24T11:36:57;99885.97;;;23.35;nan
14343;BME280;7255;53.596;9.960;2023-07-24T11:39:25;99885.38;;;23.80;nan
14343;BME280;7255;53.596;9.960;2023-07-24T11:41:51;99897.16;;;23.81;nan
14343;BME280;7255;53.596;9.960;2023-07-24T11:44:24;99892.16;;;23.53;nan
14343;BME280;7255;53.596;9.960;2023-07-24T11:46:50;99883.31;;;23.48;nan
14343;BME280;7255;53.596;9.960;2023-07-24T11:49:21;99881.19;;;23.53;nan
14343;BME280;7255;53.596;9.960;2023-07-24T11:51:48;99880.72;;;24.02;nan
14343;BME280;7255;53.596;9.960;2023-07-24T11:54:15;99881.63;;;24.06;nan
14343;BME280;7255;53.596;9.960;2023-07-24T11:56:43;99871.84;;;24.17;nan
14343;BME280;7255;53.596;9.960;2023-07-24T11:59:10;99876.88;;;24.49;nan
14343;BME280;7255;53.596;9.960;2023-07-24T12:01:37;99873.78;;;24.50;nan
14343;BME280;7255;53.596;9.960;2023-07-24T12:04:03;99884.59;;;24.55;nan
14343;BME280;7255;53.596;9.960;2023-07-24T12:06:30;99869.19;;;24.75;nan
14343;BME280;7255;53.596;9.960;2023-07-24T12:09:02;99867.91;;;24.61;nan
14343;BME280;7255;53.596;9.960;2023-07-24T12:11:30;99868.75;;;24.86;nan
14343;BME280;7255;53.596;9.960;2023-07-24T12:13:58;99861.31;;;24.98;nan
14343;BME280;7255;53.596;9.960;2023-07-24T12:16:24;99862.34;;;25.06;nan
14343;BME280;7255;53.596;9.960;2023-07-24T12:18:51;99860.97;;;25.12;nan
14343;BME280;7255;53.596;9.960;2023-07-24T12:21:17;99850.53;;;25.18;nan
14343;BME280;7255;53.596;9.960;2023-07-24T12:23:43;99864.31;;;25.43;nan
14343;BME280;7255;53.596;9.960;2023-07-24T12:26:10;99860.66;;;25.26;nan
14343;BME280;7255;53.596;9.960;2023-07-24T12:28:36;99858.44;;;24.83;nan
14343;BME280;7255;53.596;9.960;2023-07-24T12:31:04;99847.53;;;24.62;nan
14343;BME280;7255;53.596;9.960;2023-07-24T12:33:31;99855.78;;;24.74;nan
14343;BME280;7255;53.596;9.960;2023-07-24T12:35:57;99850.84;;;24.67;nan
14343;BME280;7255;53.596;9.960;2023-07-24T12:38:23;99852.91;;;24.58;nan
14343;BME280;7255;53.596;9.960;2023-07-24T12:40:49;99849.50;;;24.28;nan
14343;BME280;7255;53.596;9.960;2023-07-24T12:43:16;99850.28;;;24.28;nan
14343;BME280;7255;53.596;9.960;2023-07-24T12:45:42;99839.94;;;24.46;nan
14343;BME280;7255;53.596;9.960;2023-07-24T12:48:10;99835.09;;;24.89;nan
14343;BME280;7255;53.596;9.960;2023-07-24T12:50:36;99828.59;;;25.30;nan
14343;BME280;7255;53.596;9.960;2023-07-24T12:53:02;99834.75;;;25.27;nan
14343;BME280;7255;53.596;9.960;2023-07-24T12:55:29;99836.00;;;25.42;nan
14343;BME280;7255;53.596;9.960;2023-07-24T12:57:55;99834.50;;;25.20;nan
14343;BME280;7255;53.596;9.960;2023-07-24T13:00:22;99815.28;;;25.32;nan
14343;BME280;7255;53.596;9.960;2023-07-24T13:02:48;99814.72;;;25.39;nan
14343;BME280;7255;53.596;9.960;2023-07-24T13:05:16;99822.84;;;25.23;nan
14343;BME280;7255;53.596;9.960;2023-07-24T13:07:42;99810.94;;;25.19;nan
14343;BME280;7255;53.596;9.960;2023-07-24T13:10:10;99803.25;;;25.12;nan
14343;BME280;7255;53.596;9.960;2023-07-24T13:12:37;99798.22;;;25.39;nan
14343;BME280;7255;53.596;9.960;2023-07-24T13:15:04;99795.63;;;25.59;nan
14343;BME280;7255;53.596;9.960;2023-07-24T13:17:31;99793.97;;;26.10;nan
14343;BME280;7255;53.596;9.960;2023-07-24T13:19:57;99800.09;;;26.04;nan
14343;BME280;7255;53.596;9.960;2023-07-24T13:22:25;99797.47;;;25.95;nan
14343;BME280;7255;53.596;9.960;2023-07-24T13:24:51;99789.06;;;26.04;nan
14343;BME280;7255;53.596;9.960;2023-07-24T13:27:17;99793.44;;;26.21;nan